Huvudsida
METAR-TAF:

METAR-TAF

Flygplatser :

Rom-Urbe flygplats

Rom, Italien

latitud: 41-57N, longitud: 012-30E, höjd: 18 m

Aktuellt väderrapport

Denna rapport gjordes för 44 minuter sedan, klockan 07:50 UTC
Vind 4 kt från nord, varierande mellan nordväst och nord/nordost
Temperatur 5°C
Fuktighet 93%
Tryck 1031 hPa
Sikt 10 km eller mer
Inga moln under 1 500 m eller inga cumulonimbus

METAR: LIRU 220750Z 35004KT 320V020 CAVOK 05/04 Q1031

Tid: 09:34 (08:34 UTC)

Väderprognos

Denna rapport gjordes för 1 timme och 8 minuter sedan, klockan 07:26 UTC
Prognos gäller från 22 kl. 07 UTC till 22 kl. 15 UTC
Vind 5 kt varierande vindriktning
Sikt 10 km eller mer
Inga moln under 1 500 m eller inga cumulonimbus

TAF: LIRU 220726Z 2207/2215 VRB05KT CAVOK

Aktuella väderrapporter och prognoser från 4000 flygplatser (METAR- och TAF-rapporter).

De tillgängliga stationerna syns som gula och röda prickar på kartan.

För musen över prickarna för att se namnen på stationerna.

Klicka sedan för att få väderrapporter och prognoser.

För att ändra kartan: Klicka på de gröna knapparna med ett svart kors på för att zooma in; den gröna knappen med ett streck på för att zooma ut; eller på de gröna pilarna för angränsande kartor.


METAR-TAF: